Time;durP1;ratioP1;P1;durP2;ratioP2;P2;SDS_P1;SDS_P2;PMS_P1;PMS_P2;Temp;Humidity;BMP_temperature;BMP_pressure;BME280_temperature;BME280_humidity;BME280_pressure;Samples;Min_cycle;Max_cycle;Signal;HPM_P1;HPM_P2
2022/06/29 00:00:09;;;;;;;;;2.75;1.00;;;;;-146.44;100.00;58906.56;5078127;27;45533;-62
2022/06/29 00:02:35;;;;;;;;;1.00;1.00;;;;;-146.44;100.00;58906.56;5082920;27;45863;-62
2022/06/29 00:05:03;;;;;;;;;3.50;1.00;;;;;-146.44;100.00;58906.56;5064807;27;45609;-62
2022/06/29 00:07:29;;;;;;;;;3.00;2.00;;;;;-146.44;100.00;58906.56;5085056;27;45577;-62
2022/06/29 00:09:54;;;;;;;;;3.50;2.75;;;;;-146.44;100.00;58906.56;5088388;27;46355;-61
2022/06/29 00:12:19;;;;;;;;;3.00;3.00;;;;;-146.44;100.00;58906.56;5086213;27;45694;-60
2022/06/29 00:14:45;;;;;;;;;2.00;1.25;;;;;-146.44;100.00;58906.56;5087379;27;45497;-60
2022/06/29 00:17:14;;;;;;;;;2.50;2.50;;;;;-146.44;100.00;58906.56;5089634;27;45418;-60
2022/06/29 00:19:40;;;;;;;;;1.50;1.50;;;;;-146.44;100.00;58906.56;5073349;27;45486;-61
2022/06/29 00:22:07;;;;;;;;;1.75;1.75;;;;;-146.44;100.00;58906.56;5074507;28;45442;-60
2022/06/29 00:24:33;;;;;;;;;2.00;2.00;;;;;-146.44;100.00;58906.56;5056419;28;45708;-61
2022/06/29 00:27:00;;;;;;;;;2.50;1.00;;;;;-146.44;100.00;58906.56;5074299;28;46448;-61
2022/06/29 00:29:26;;;;;;;;;2.25;2.25;;;;;-146.44;100.00;58906.56;5081145;27;45453;-61
2022/06/29 00:31:51;;;;;;;;;3.50;3.50;;;;;-146.44;100.00;58906.56;5081629;27;45564;-61
2022/06/29 00:34:16;;;;;;;;;2.00;2.00;;;;;-146.44;100.00;58906.56;5095014;27;45632;-62
2022/06/29 00:36:42;;;;;;;;;2.50;2.50;;;;;-146.44;100.00;58906.56;5084318;27;46365;-61
2022/06/29 00:39:08;;;;;;;;;3.75;2.00;;;;;-146.44;100.00;58906.56;5074028;27;45553;-61
2022/06/29 00:41:40;;;;;;;;;2.00;2.00;;;;;-146.44;100.00;58906.56;5077039;28;45462;-61
2022/06/29 00:44:09;;;;;;;;;2.75;2.75;;;;;-146.44;100.00;58906.56;5077893;27;45469;-61
2022/06/29 00:46:36;;;;;;;;;2.50;2.00;;;;;-146.44;100.00;58906.56;5078210;27;46204;-62
2022/06/29 00:53:01;;;;;;;;;2.00;2.00;;;;;-146.44;100.00;58906.56;5079649;27;45422;-62
2022/06/29 00:55:30;;;;;;;;;1.50;1.50;;;;;-146.44;100.00;58906.56;5077752;28;45535;-62
2022/06/29 00:58:03;;;;;;;;;5.00;3.75;;;;;-146.44;100.00;58906.56;5081485;27;45537;-61
2022/06/29 01:00:29;;;;;;;;;2.00;2.00;;;;;-146.44;100.00;58906.56;5081759;27;45482;-60
2022/06/29 01:02:55;;;;;;;;;3.50;3.50;;;;;-146.44;100.00;58906.56;5091663;27;45567;-61
2022/06/29 01:05:20;;;;;;;;;2.00;2.00;;;;;-146.44;100.00;58906.56;5097430;27;45448;-60
2022/06/29 01:07:46;;;;;;;;;2.25;2.25;;;;;-146.44;100.00;58906.56;5097563;27;46084;-60
2022/06/29 01:10:11;;;;;;;;;2.75;2.00;;;;;-146.44;100.00;58906.56;5097745;27;45765;-60
2022/06/29 01:12:37;;;;;;;;;3.00;3.00;;;;;-146.44;100.00;58906.56;5084932;27;45497;-60
2022/06/29 01:15:02;;;;;;;;;2.00;2.00;;;;;-146.44;100.00;58906.56;5077325;28;45508;-60
2022/06/29 01:17:28;;;;;;;;;3.00;3.00;;;;;-146.44;100.00;58906.56;5090114;27;45637;-60
2022/06/29 01:19:54;;;;;;;;;2.00;2.00;;;;;-146.44;100.00;58906.56;5096802;27;45780;-60
2022/06/29 01:22:22;;;;;;;;;4.00;4.00;;;;;-146.44;100.00;58906.56;5096986;27;45355;-60
2022/06/29 01:24:48;;;;;;;;;2.00;2.00;;;;;-146.44;100.00;58906.56;5097594;27;45427;-60
2022/06/29 01:27:15;;;;;;;;;3.50;2.25;;;;;-146.44;100.00;58906.56;5088168;27;46200;-61
2022/06/29 01:29:41;;;;;;;;;2.50;2.50;;;;;-146.44;100.00;58906.56;5091811;27;45566;-61
2022/06/29 01:32:07;;;;;;;;;2.00;2.00;;;;;-146.44;100.00;58906.56;5097550;27;45509;-61
2022/06/29 01:34:33;;;;;;;;;2.00;2.00;;;;;-146.44;100.00;58906.56;5097426;27;45473;-62
2022/06/29 01:36:59;;;;;;;;;3.00;3.00;;;;;-146.44;100.00;58906.56;5095018;27;45447;-61
2022/06/29 01:39:26;;;;;;;;;3.75;3.75;;;;;-146.44;100.00;58906.56;5084305;27;45434;-61
2022/06/29 01:41:52;;;;;;;;;4.00;4.00;;;;;-146.44;100.00;58906.56;5076944;27;45593;-61
2022/06/29 01:44:17;;;;;;;;;4.00;3.00;;;;;-146.44;100.00;58906.56;5086514;27;45765;-61
2022/06/29 01:46:43;;;;;;;;;5.00;4.00;;;;;-146.44;100.00;58906.56;5078957;27;46373;-62
2022/06/29 01:49:08;;;;;;;;;3.75;2.75;;;;;-146.44;100.00;58906.56;5075285;28;45453;-62
2022/06/29 01:51:34;;;;;;;;;3.00;2.75;;;;;-146.44;100.00;58906.56;5065309;27;45548;-61
2022/06/29 01:54:00;;;;;;;;;2.00;2.00;;;;;-146.44;100.00;58906.56;5093819;27;45392;-60
2022/06/29 01:56:25;;;;;;;;;3.00;3.00;;;;;-146.44;100.00;58906.56;5086234;27;45524;-61
2022/06/29 01:58:51;;;;;;;;;2.25;2.25;;;;;-146.44;100.00;58906.56;5078839;27;45809;-61
2022/06/29 02:01:16;;;;;;;;;3.00;3.00;;;;;-146.44;100.00;58906.56;5097379;27;45469;-61
2022/06/29 02:03:42;;;;;;;;;5.00;4.50;;;;;-146.44;100.00;58906.56;5097231;27;45592;-60
2022/06/29 02:06:07;;;;;;;;;2.00;2.00;;;;;-146.44;100.00;58906.56;5096844;27;45508;-59
2022/06/29 02:08:33;;;;;;;;;4.50;3.25;;;;;-146.44;100.00;58906.56;5096865;27;45399;-61
2022/06/29 02:11:00;;;;;;;;;3.75;3.00;;;;;-146.44;100.00;58906.56;5077525;27;45586;-61
2022/06/29 02:13:26;;;;;;;;;3.00;3.00;;;;;-146.44;100.00;58906.56;5083609;27;45488;-60
2022/06/29 02:15:51;;;;;;;;;5.25;4.00;;;;;-146.44;100.00;58906.56;5058084;28;45593;-61
2022/06/29 02:18:17;;;;;;;;;3.50;2.00;;;;;-146.44;100.00;58906.56;5095724;27;45488;-61
2022/06/29 02:20:42;;;;;;;;;2.00;2.00;;;;;-146.44;100.00;58906.56;5044487;27;45539;-61
2022/06/29 02:23:08;;;;;;;;;3.00;3.00;;;;;-146.44;100.00;58906.56;5096623;27;45584;-59
2022/06/29 02:25:33;;;;;;;;;4.00;4.00;;;;;-146.44;100.00;58906.56;5096047;27;45476;-60
2022/06/29 02:27:58;;;;;;;;;4.00;4.00;;;;;-146.44;100.00;58906.56;5093143;27;45564;-61
2022/06/29 02:34:43;;;;;;;;;3.25;3.25;;;;;-146.44;100.00;58906.56;5088873;27;45604;-61
2022/06/29 02:35:53;;;;;;;;;3.50;3.25;;;;;-146.44;100.00;58906.56;5075188;28;45479;-61
2022/06/29 02:38:18;;;;;;;;;4.75;4.75;;;;;-146.44;100.00;58906.56;5075965;27;45571;-61
2022/06/29 02:40:44;;;;;;;;;3.00;3.00;;;;;-146.44;100.00;58906.56;5076309;28;45777;-60
2022/06/29 02:43:10;;;;;;;;;4.00;3.00;;;;;-146.44;100.00;58906.56;5076002;28;45510;-61
2022/06/29 02:45:35;;;;;;;;;3.00;2.50;;;;;-146.44;100.00;58906.56;5084113;27;45499;-61
2022/06/29 02:48:01;;;;;;;;;4.50;4.25;;;;;-146.44;100.00;58906.56;5078257;27;45513;-61
2022/06/29 02:50:26;;;;;;;;;2.25;2.25;;;;;-146.44;100.00;58906.56;5076162;28;45489;-61
2022/06/29 02:52:52;;;;;;;;;2.00;2.00;;;;;-146.44;100.00;58906.56;5093525;27;45480;-61
2022/06/29 02:55:17;;;;;;;;;7.25;7.25;;;;;-146.44;100.00;58906.56;5095939;27;45614;-64
2022/06/29 02:57:43;;;;;;;;;2.00;2.00;;;;;-146.44;100.00;58906.56;5095463;27;45520;-61
2022/06/29 03:00:08;;;;;;;;;3.25;3.00;;;;;-146.44;100.00;58906.56;5077456;27;45612;-61
2022/06/29 03:02:34;;;;;;;;;5.00;4.75;;;;;-146.44;100.00;58906.56;5083721;27;45575;-61
2022/06/29 03:05:00;;;;;;;;;3.50;3.50;;;;;-146.44;100.00;58906.56;5077807;27;45493;-60
2022/06/29 03:07:26;;;;;;;;;3.50;3.50;;;;;-146.44;100.00;58906.56;5075493;27;45554;-60
2022/06/29 03:09:51;;;;;;;;;5.00;3.00;;;;;-146.44;100.00;58906.56;5075630;27;45424;-60
2022/06/29 03:12:16;;;;;;;;;3.50;3.50;;;;;-146.44;100.00;58906.56;5075399;28;45442;-61
2022/06/29 03:14:42;;;;;;;;;3.00;3.00;;;;;-146.44;100.00;58906.56;5075126;28;45447;-60
2022/06/29 03:17:07;;;;;;;;;2.00;2.00;;;;;-146.44;100.00;58906.56;5084641;27;47855;-60
2022/06/29 03:19:32;;;;;;;;;3.00;3.00;;;;;-146.44;100.00;58906.56;5087590;27;45505;-61
2022/06/29 03:21:58;;;;;;;;;3.50;3.50;;;;;-146.44;100.00;58906.56;5092844;27;45419;-61
2022/06/29 03:24:23;;;;;;;;;2.00;2.00;;;;;-146.44;100.00;58906.56;5095592;27;46199;-61
2022/06/29 03:26:48;;;;;;;;;3.25;3.25;;;;;-146.44;100.00;58906.56;5077110;27;45457;-60
2022/06/29 03:29:14;;;;;;;;;4.00;4.00;;;;;-146.44;100.00;58906.56;5075301;28;45349;-60
2022/06/29 03:31:39;;;;;;;;;2.00;2.00;;;;;-146.44;100.00;58906.56;5075135;28;45521;-60
2022/06/29 03:34:04;;;;;;;;;3.00;3.00;;;;;-146.44;100.00;58906.56;5075124;28;45573;-61
2022/06/29 03:36:30;;;;;;;;;3.25;3.25;;;;;-146.44;100.00;58906.56;5076474;27;45470;-60
2022/06/29 03:38:55;;;;;;;;;4.00;3.50;;;;;-146.44;100.00;58906.56;5078285;27;45635;-61
2022/06/29 03:41:20;;;;;;;;;5.50;3.25;;;;;-146.44;100.00;58906.56;5074964;28;45585;-60
2022/06/29 03:43:46;;;;;;;;;5.00;4.00;;;;;-146.44;100.00;58906.56;5074771;28;46113;-61
2022/06/29 03:46:11;;;;;;;;;3.25;3.25;;;;;-146.44;100.00;58906.56;5075017;27;45425;-60
2022/06/29 03:48:37;;;;;;;;;4.25;4.25;;;;;-146.44;100.00;58906.56;5075243;28;45519;-60
2022/06/29 03:51:03;;;;;;;;;3.75;3.50;;;;;-146.44;100.00;58906.56;5075648;27;45538;-60
2022/06/29 03:53:28;;;;;;;;;4.00;4.00;;;;;-146.44;100.00;58906.56;5086725;27;45433;-60
2022/06/29 03:55:53;;;;;;;;;4.00;4.00;;;;;-146.44;100.00;58906.56;5092078;27;45529;-61
2022/06/29 03:58:19;;;;;;;;;4.00;4.00;;;;;-146.44;100.00;58906.56;5094991;27;45894;-60
2022/06/29 04:00:44;;;;;;;;;3.50;3.50;;;;;-146.44;100.00;58906.56;5095024;27;45552;-60
2022/06/29 04:03:09;;;;;;;;;6.00;6.00;;;;;-146.44;100.00;58906.56;5094942;27;46308;-62
2022/06/29 04:05:35;;;;;;;;;4.75;4.75;;;;;-146.44;100.00;58906.56;5094924;27;45573;-61
2022/06/29 04:08:00;;;;;;;;;3.00;3.00;;;;;-146.44;100.00;58906.56;5076917;27;45408;-60
2022/06/29 04:10:25;;;;;;;;;3.50;3.50;;;;;-146.44;100.00;58906.56;5087979;27;45646;-61
2022/06/29 04:12:51;;;;;;;;;4.00;4.00;;;;;-146.44;100.00;58906.56;5090932;27;46462;-60
2022/06/29 04:15:16;;;;;;;;;4.50;4.50;;;;;-146.44;100.00;58906.56;5094101;27;45497;-61
2022/06/29 04:17:42;;;;;;;;;3.00;3.00;;;;;-146.44;100.00;58906.56;5080307;27;45648;-61
2022/06/29 04:20:07;;;;;;;;;5.50;4.75;;;;;-146.44;100.00;58906.56;5074593;28;45528;-61
2022/06/29 04:22:33;;;;;;;;;6.25;6.25;;;;;-146.44;100.00;58906.56;5074119;28;45575;-61
2022/06/29 04:24:59;;;;;;;;;6.00;5.00;;;;;-146.44;100.00;58906.56;5074276;28;45470;-61
2022/06/29 04:27:24;;;;;;;;;5.50;3.75;;;;;-146.44;100.00;58906.56;5082230;27;45497;-61
2022/06/29 04:29:50;;;;;;;;;3.00;3.00;;;;;-146.44;100.00;58906.56;5078163;27;45499;-62
2022/06/29 04:32:15;;;;;;;;;4.75;4.00;;;;;-146.44;100.00;58906.56;5086238;27;45418;-60
2022/06/29 04:34:41;;;;;;;;;3.50;3.25;;;;;-146.44;100.00;58906.56;5094829;27;45467;-61
2022/06/29 04:37:07;;;;;;;;;5.00;5.00;;;;;-146.44;100.00;58906.56;5084692;27;45500;-60
2022/06/29 04:39:32;;;;;;;;;3.00;3.00;;;;;-146.44;100.00;58906.56;5056033;28;45506;-61
2022/06/29 04:41:57;;;;;;;;;2.00;2.00;;;;;-146.44;100.00;58906.56;5073692;28;47058;-61
2022/06/29 04:44:25;;;;;;;;;2.00;2.00;;;;;-146.44;100.00;58906.56;5074797;27;45509;-61
2022/06/29 04:46:50;;;;;;;;;2.75;2.75;;;;;-146.44;100.00;58906.56;5082385;27;45525;-61
2022/06/29 04:49:16;;;;;;;;;5.00;5.00;;;;;-146.44;100.00;58906.56;5079044;27;45669;-60
2022/06/29 04:51:41;;;;;;;;;4.25;4.00;;;;;-146.44;100.00;58906.56;5094273;27;45588;-61
2022/06/29 04:54:06;;;;;;;;;5.50;3.75;;;;;-146.44;100.00;58906.56;5094241;27;45472;-61
2022/06/29 04:56:34;;;;;;;;;5.00;5.00;;;;;-146.44;100.00;58906.56;5090513;27;45514;-61
2022/06/29 04:59:01;;;;;;;;;4.25;4.25;;;;;-146.44;100.00;58906.56;5083516;27;45481;-61
2022/06/29 05:01:29;;;;;;;;;5.50;5.50;;;;;-146.44;100.00;58906.56;5093053;27;46438;-61
2022/06/29 05:03:55;;;;;;;;;5.00;4.00;;;;;-146.44;100.00;58906.56;5079233;27;45490;-61
2022/06/29 05:06:21;;;;;;;;;5.25;5.25;;;;;-146.44;100.00;58906.56;5082948;27;45511;-61
2022/06/29 05:08:50;;;;;;;;;1.75;1.75;;;;;-146.44;100.00;58906.56;5094485;27;45518;-61
2022/06/29 05:11:17;;;;;;;;;5.00;5.00;;;;;-146.44;100.00;58906.56;5094229;27;45571;-63
2022/06/29 05:13:43;;;;;;;;;5.00;5.00;;;;;-146.44;100.00;58906.56;5094146;27;45541;-61
2022/06/29 05:16:09;;;;;;;;;5.00;5.00;;;;;-146.44;100.00;58906.56;5091906;27;45590;-61
2022/06/29 05:18:35;;;;;;;;;3.50;3.50;;;;;-146.44;100.00;58906.56;5074064;27;45441;-60
2022/06/29 05:21:01;;;;;;;;;3.50;3.50;;;;;-146.44;100.00;58906.56;5086579;27;45703;-61
2022/06/29 05:23:29;;;;;;;;;5.25;4.25;;;;;-146.44;100.00;58906.56;5093840;27;45778;-61
2022/06/29 05:25:54;;;;;;;;;4.75;4.00;;;;;-146.44;100.00;58906.56;5086713;27;45507;-60
2022/06/29 05:28:20;;;;;;;;;3.75;3.75;;;;;-146.44;100.00;58906.56;5077842;27;45495;-62
2022/06/29 05:30:45;;;;;;;;;6.00;4.33;;;;;-146.44;100.00;58906.56;5076687;27;46716;-61
2022/06/29 05:33:10;;;;;;;;;4.00;4.00;;;;;-146.44;100.00;58906.56;5063881;27;46385;-61
2022/06/29 05:35:36;;;;;;;;;5.00;3.25;;;;;-146.44;100.00;58906.56;5088974;27;45442;-61
2022/06/29 05:38:02;;;;;;;;;2.00;2.00;;;;;-146.44;100.00;58906.56;5077479;27;45445;-61
2022/06/29 05:40:28;;;;;;;;;3.00;3.00;;;;;-146.44;100.00;58906.56;5075381;28;46351;-61
2022/06/29 05:42:54;;;;;;;;;2.25;2.25;;;;;-146.44;100.00;58906.56;5076653;28;45510;-61
2022/06/29 05:45:19;;;;;;;;;2.50;2.50;;;;;-146.44;100.00;58906.56;5076696;28;45609;-62
2022/06/29 05:47:45;;;;;;;;;2.00;2.00;;;;;-146.44;100.00;58906.56;5076656;28;45478;-61
2022/06/29 05:50:10;;;;;;;;;3.25;3.25;;;;;-146.44;100.00;58906.56;5088789;27;47699;-62
2022/06/29 05:52:37;;;;;;;;;3.00;3.00;;;;;-146.44;100.00;58906.56;5095538;27;45497;-62
2022/06/29 05:55:06;;;;;;;;;3.00;3.00;;;;;-146.44;100.00;58906.56;5069687;28;45497;-63
2022/06/29 05:57:33;;;;;;;;;1.50;1.50;;;;;-146.44;100.00;58906.56;5072497;27;45427;-62
2022/06/29 06:00:01;;;;;;;;;3.00;2.25;;;;;-146.44;100.00;58906.56;5087025;27;45608;-62
2022/06/29 06:02:26;;;;;;;;;1.25;1.25;;;;;-146.44;100.00;58906.56;5076280;28;45472;-62
2022/06/29 06:04:52;;;;;;;;;2.00;2.00;;;;;-146.44;100.00;58906.56;5071596;28;45498;-62
2022/06/29 06:07:18;;;;;;;;;2.75;2.75;;;;;-146.44;100.00;58906.56;5076376;28;45478;-63
2022/06/29 06:09:43;;;;;;;;;2.00;2.00;;;;;-146.44;100.00;58906.56;5068299;27;46607;-62
2022/06/29 06:12:09;;;;;;;;;3.50;2.25;;;;;-146.44;100.00;58906.56;5077633;27;45498;-64
2022/06/29 06:14:34;;;;;;;;;4.00;4.00;;;;;-146.44;100.00;58906.56;5058278;28;45583;-66
2022/06/29 06:17:00;;;;;;;;;2.50;2.00;;;;;-146.44;100.00;58906.56;5086946;27;45589;-66
2022/06/29 06:19:25;;;;;;;;;2.00;2.00;;;;;-146.44;100.00;58906.56;5096395;27;46145;-66
2022/06/29 06:21:50;;;;;;;;;2.50;2.50;;;;;-146.44;100.00;58906.56;5094400;27;45456;-65
2022/06/29 06:24:16;;;;;;;;;3.33;3.33;;;;;-146.44;100.00;58906.56;5092551;27;45461;-66
2022/06/29 06:26:41;;;;;;;;;5.00;4.00;;;;;-146.44;100.00;58906.56;5095796;27;45426;-66
2022/06/29 06:29:06;;;;;;;;;3.00;3.00;;;;;-146.44;100.00;58906.56;5077972;27;45528;-69
2022/06/29 06:31:32;;;;;;;;;2.00;2.00;;;;;-146.44;100.00;58906.56;5087021;27;45525;-65
2022/06/29 06:33:57;;;;;;;;;5.75;4.00;;;;;-146.44;100.00;58906.56;5096367;27;45711;-70
2022/06/29 06:36:23;;;;;;;;;4.00;4.00;;;;;-146.44;100.00;58906.56;5096231;27;47825;-65
2022/06/29 06:38:48;;;;;;;;;3.50;3.50;;;;;-146.44;100.00;58906.56;5095453;27;45923;-72
2022/06/29 06:41:22;;;;;;;;;3.00;3.00;;;;;-146.44;100.00;58906.56;5096188;27;45504;-67
2022/06/29 06:43:53;;;;;;;;;4.25;2.25;;;;;-146.44;100.00;58906.56;5085925;27;45414;-66
2022/06/29 06:46:19;;;;;;;;;5.50;3.00;;;;;-146.44;100.00;58906.56;5067902;27;45588;-66
2022/06/29 06:48:45;;;;;;;;;2.00;2.00;;;;;-146.44;100.00;58906.56;5096068;27;45531;-66
2022/06/29 06:51:12;;;;;;;;;4.25;4.25;;;;;-146.44;100.00;58906.56;5096144;27;45434;-67
2022/06/29 06:53:37;;;;;;;;;1.50;1.50;;;;;-146.44;100.00;58906.56;5095235;27;45544;-66
2022/06/29 06:56:06;;;;;;;;;1.25;1.25;;;;;-146.44;100.00;58906.56;5095287;27;45542;-68
2022/06/29 06:58:32;;;;;;;;;3.00;3.00;;;;;-146.44;100.00;58906.56;5095546;27;45741;-67
2022/06/29 07:00:57;;;;;;;;;2.00;1.00;;;;;-146.44;100.00;58906.56;5094247;27;45467;-69
2022/06/29 07:03:23;;;;;;;;;2.25;2.25;;;;;-146.44;100.00;58906.56;5075647;28;45442;-69
2022/06/29 07:05:48;;;;;;;;;3.00;1.00;;;;;-146.44;100.00;58906.56;5075425;28;45490;-68
2022/06/29 07:08:13;;;;;;;;;1.25;1.25;;;;;-146.44;100.00;58906.56;5075270;28;53191;-69
2022/06/29 07:10:39;;;;;;;;;3.25;3.25;;;;;-146.44;100.00;58906.56;5075967;28;45442;-68
2022/06/29 07:13:04;;;;;;;;;2.00;2.00;;;;;-146.44;100.00;58906.56;5075833;28;45495;-70
2022/06/29 07:15:30;;;;;;;;;1.50;1.50;;;;;-146.44;100.00;58906.56;5075867;28;45398;-69
2022/06/29 07:17:55;;;;;;;;;2.00;1.00;;;;;-146.44;100.00;58906.56;5076235;27;45456;-69
2022/06/29 07:20:21;;;;;;;;;3.00;3.00;;;;;-146.44;100.00;58906.56;5075648;28;45540;-69
2022/06/29 07:22:46;;;;;;;;;2.25;1.25;;;;;-146.44;100.00;58906.56;5075403;28;45558;-69
2022/06/29 07:25:12;;;;;;;;;2.00;2.00;;;;;-146.44;100.00;58906.56;5075520;28;45606;-69
2022/06/29 07:27:37;;;;;;;;;2.00;2.00;;;;;-146.44;100.00;58906.56;5075326;28;45615;-68
2022/06/29 07:30:04;;;;;;;;;3.00;2.00;;;;;-146.44;100.00;58906.56;5057307;28;45681;-68
2022/06/29 07:32:31;;;;;;;;;2.00;2.00;;;;;-146.44;100.00;58906.56;5075783;28;45477;-70
2022/06/29 07:34:56;;;;;;;;;6.00;6.00;;;;;-146.44;100.00;58906.56;5058270;27;45625;-69
2022/06/29 07:37:21;;;;;;;;;3.00;2.25;;;;;-146.44;100.00;58906.56;5095579;27;45721;-68
2022/06/29 07:39:47;;;;;;;;;2.00;1.75;;;;;-146.44;100.00;58906.56;5095614;27;45516;-70
2022/06/29 07:42:12;;;;;;;;;2.00;2.00;;;;;-146.44;100.00;58906.56;5095418;27;45564;-69
2022/06/29 07:44:37;;;;;;;;;2.00;2.00;;;;;-146.44;100.00;58906.56;5095454;27;45671;-68
2022/06/29 07:47:03;;;;;;;;;1.50;1.50;;;;;-146.44;100.00;58906.56;5095545;27;46522;-68
2022/06/29 07:49:28;;;;;;;;;2.00;2.00;;;;;-146.44;100.00;58906.56;5094329;27;45528;-70
2022/06/29 07:51:54;;;;;;;;;4.00;4.00;;;;;-146.44;100.00;58906.56;5084273;27;45463;-69
2022/06/29 07:54:19;;;;;;;;;2.75;1.75;;;;;-146.44;100.00;58906.56;5095122;27;45462;-68
2022/06/29 07:56:45;;;;;;;;;2.00;2.00;;;;;-146.44;100.00;58906.56;5095141;27;45726;-68
2022/06/29 07:59:10;;;;;;;;;3.00;2.00;;;;;-146.44;100.00;58906.56;5095603;27;45589;-68
2022/06/29 08:01:36;;;;;;;;;1.25;1.25;;;;;-146.44;100.00;58906.56;5095882;27;45485;-67
2022/06/29 08:04:01;;;;;;;;;2.00;2.00;;;;;-146.44;100.00;58906.56;5095192;27;45405;-68
2022/06/29 08:06:26;;;;;;;;;3.00;1.25;;;;;-146.44;100.00;58906.56;5095070;27;45416;-68
2022/06/29 08:08:52;;;;;;;;;4.00;3.00;;;;;-146.44;100.00;58906.56;5093031;27;45436;-67
2022/06/29 08:11:18;;;;;;;;;1.50;1.50;;;;;-146.44;100.00;58906.56;5075333;27;45586;-68
2022/06/29 08:13:43;;;;;;;;;3.00;2.00;;;;;-146.44;100.00;58906.56;5074925;28;45538;-68
2022/06/29 08:16:08;;;;;;;;;3.50;1.00;;;;;-146.44;100.00;58906.56;5074568;28;46070;-69
2022/06/29 08:18:34;;;;;;;;;3.00;3.00;;;;;-146.44;100.00;58906.56;5074703;28;45518;-68
2022/06/29 08:21:02;;;;;;;;;4.00;4.00;;;;;-146.44;100.00;58906.56;5074552;28;45518;-69
2022/06/29 08:23:28;;;;;;;;;3.00;3.00;;;;;-146.44;100.00;58906.56;5074481;28;45368;-68
2022/06/29 08:25:53;;;;;;;;;1.75;1.75;;;;;-146.44;100.00;58906.56;5074989;27;46505;-68
2022/06/29 08:28:19;;;;;;;;;4.75;4.00;;;;;-146.44;100.00;58906.56;5094567;27;45520;-67
2022/06/29 08:30:44;;;;;;;;;1.00;1.00;;;;;-146.44;100.00;58906.56;5095081;27;45541;-67
2022/06/29 08:33:10;;;;;;;;;2.00;2.00;;;;;-146.44;100.00;58906.56;5076405;27;45603;-68
2022/06/29 08:35:35;;;;;;;;;2.00;2.00;;;;;-146.44;100.00;58906.56;5094561;27;46488;-69
2022/06/29 08:38:02;;;;;;;;;2.75;2.75;;;;;-146.44;100.00;58906.56;5094552;27;45493;-68
2022/06/29 08:40:42;;;;;;;;;3.25;2.00;;;;;-146.44;100.00;58906.56;5095373;27;45403;-68
2022/06/29 08:43:11;;;;;;;;;2.00;2.00;;;;;-146.44;100.00;58906.56;5091890;27;45362;-68
2022/06/29 08:45:41;;;;;;;;;3.25;3.25;;;;;-146.44;100.00;58906.56;5072780;28;46534;-67
2022/06/29 08:48:06;;;;;;;;;3.00;3.00;;;;;-146.44;100.00;58906.56;5079026;27;45546;-69
2022/06/29 08:50:32;;;;;;;;;2.00;2.00;;;;;-146.44;100.00;58906.56;5072981;28;45764;-67
2022/06/29 08:53:02;;;;;;;;;2.00;2.00;;;;;-146.44;100.00;58906.56;5074258;28;45703;-67
2022/06/29 08:55:29;;;;;;;;;3.75;3.00;;;;;-146.44;100.00;58906.56;5074055;28;46559;-67
2022/06/29 08:57:56;;;;;;;;;2.25;2.25;;;;;-146.44;100.00;58906.56;5074337;28;45403;-68
2022/06/29 09:00:24;;;;;;;;;1.00;1.00;;;;;-146.44;100.00;58906.56;5085278;27;45511;-69
2022/06/29 09:02:50;;;;;;;;;1.00;1.00;;;;;-146.44;100.00;58906.56;5077519;28;45419;-68
2022/06/29 09:05:15;;;;;;;;;2.00;2.00;;;;;-146.44;100.00;58906.56;5077478;28;46579;-69
2022/06/29 09:07:40;;;;;;;;;1.50;1.00;;;;;-146.44;100.00;58906.56;5077427;28;45458;-70
2022/06/29 09:10:08;;;;;;;;;1.00;1.00;;;;;-146.44;100.00;58906.56;5077990;28;45607;-70
2022/06/29 09:12:34;;;;;;;;;18.00;16.33;;;;;-146.44;100.00;58906.56;5077708;28;45479;-69
2022/06/29 09:15:02;;;;;;;;;1.75;1.75;;;;;-146.44;100.00;58906.56;5059112;28;46768;-70
2022/06/29 09:17:31;;;;;;;;;2.00;2.00;;;;;-146.44;100.00;58906.56;5082096;27;45553;-69
2022/06/29 09:19:56;;;;;;;;;1.00;1.00;;;;;-146.44;100.00;58906.56;5097944;27;45435;-68
2022/06/29 09:22:22;;;;;;;;;21.67;19.00;;;;;-146.44;100.00;58906.56;5097932;27;45628;-65
2022/06/29 09:24:48;;;;;;;;;90.75;88.00;;;;;-146.44;100.00;58906.56;5097605;27;46373;-69
2022/06/29 09:27:13;;;;;;;;;4.25;2.00;;;;;-146.44;100.00;58906.56;5083766;27;45534;-67
2022/06/29 09:29:41;;;;;;;;;4.25;3.00;;;;;-146.44;100.00;58906.56;5077228;28;45515;-67
2022/06/29 09:32:09;;;;;;;;;1.75;1.75;;;;;-146.44;100.00;58906.56;5077163;28;45411;-68
2022/06/29 09:34:37;;;;;;;;;3.75;3.25;;;;;-146.44;100.00;58906.56;5083429;27;45482;-67
2022/06/29 09:37:04;;;;;;;;;3.00;2.25;;;;;-146.44;100.00;58906.56;5097431;27;45516;-68
2022/06/29 09:39:37;;;;;;;;;1.50;1.50;;;;;-146.44;100.00;58906.56;5097680;27;45478;-69
2022/06/29 09:42:09;;;;;;;;;1.00;1.00;;;;;-146.44;100.00;58906.56;5097500;27;45462;-68
2022/06/29 09:44:34;;;;;;;;;1.00;1.00;;;;;-146.44;100.00;58906.56;5092086;27;46215;-68
2022/06/29 09:47:04;;;;;;;;;1.00;1.00;;;;;-146.44;100.00;58906.56;5096795;27;45375;-68
2022/06/29 09:49:34;;;;;;;;;1.00;1.00;;;;;-146.44;100.00;58906.56;5096538;27;45583;-68
2022/06/29 09:52:05;;;;;;;;;1.50;1.50;;;;;-146.44;100.00;58906.56;5089553;27;45403;-68
2022/06/29 09:54:32;;;;;;;;;2.25;2.25;;;;;-146.44;100.00;58906.56;5076286;27;45474;-67
2022/06/29 09:56:58;;;;;;;;;1.75;1.75;;;;;-146.44;100.00;58906.56;5087411;27;45532;-68
2022/06/29 10:02:37;;;;;;;;;2.00;2.00;;;;;-146.44;100.00;58906.56;5089383;27;45500;-67
2022/06/29 10:05:20;;;;;;;;;2.25;2.25;;;;;-146.44;100.00;58906.56;5080827;27;46125;-67
2022/06/29 10:07:51;;;;;;;;;2.00;2.00;;;;;-146.44;100.00;58906.56;5068260;27;45522;-67
2022/06/29 10:10:19;;;;;;;;;4.00;3.00;;;;;-146.44;100.00;58906.56;5093366;27;45487;-67
2022/06/29 10:13:42;;;;;;;;;2.00;2.00;;;;;-146.44;100.00;58906.56;5083359;27;45602;-66
2022/06/29 10:16:22;;;;;;;;;5.00;4.00;;;;;-146.44;100.00;58906.56;5094308;27;45403;-66
2022/06/29 10:18:51;;;;;;;;;3.00;3.00;;;;;-146.44;100.00;58906.56;5077992;27;45501;-66
2022/06/29 10:21:19;;;;;;;;;3.00;2.25;;;;;-146.44;100.00;58906.56;5076870;27;45545;-66
2022/06/29 10:23:55;;;;;;;;;3.00;3.00;;;;;-146.44;100.00;58906.56;5076873;27;45506;-66
2022/06/29 10:26:27;;;;;;;;;4.00;4.00;;;;;-146.44;100.00;58906.56;5082833;27;46212;-66
2022/06/29 10:28:54;;;;;;;;;2.00;2.00;;;;;-146.44;100.00;58906.56;5056280;28;45452;-65
2022/06/29 10:31:56;;;;;;;;;1.25;1.25;;;;;-146.44;100.00;58906.56;5076912;27;45469;-65
2022/06/29 10:34:31;;;;;;;;;5.00;4.00;;;;;-146.44;100.00;58906.56;5095702;27;45500;-66
2022/06/29 10:37:02;;;;;;;;;3.25;1.00;;;;;-146.44;100.00;58906.56;5095864;27;46226;-65
2022/06/29 10:39:48;;;;;;;;;161.00;150.25;;;;;-146.44;100.00;58906.56;5095960;27;45432;-68
2022/06/29 10:45:17;;;;;;;;;2.75;2.75;;;;;-146.44;100.00;58906.56;5076044;27;45457;-67
2022/06/29 10:47:55;;;;;;;;;1.00;1.00;;;;;-146.44;100.00;58906.56;5084912;27;45473;-66
2022/06/29 10:50:23;;;;;;;;;2.00;2.00;;;;;-146.44;100.00;58906.56;5089479;27;45658;-66
2022/06/29 10:52:51;;;;;;;;;2.50;2.00;;;;;-146.44;100.00;58906.56;5074255;27;45502;-66
2022/06/29 10:55:17;;;;;;;;;4.25;4.25;;;;;-146.44;100.00;58906.56;5078951;27;45394;-66
2022/06/29 10:57:44;;;;;;;;;1.25;1.25;;;;;-146.44;100.00;58906.56;5076099;27;45502;-66
2022/06/29 11:00:16;;;;;;;;;2.25;2.25;;;;;-146.44;100.00;58906.56;5084874;27;45509;-65
2022/06/29 11:02:42;;;;;;;;;2.00;1.00;;;;;-146.44;100.00;58906.56;5072806;27;45461;-67
2022/06/29 11:05:09;;;;;;;;;2.00;2.00;;;;;-146.44;100.00;58906.56;5095546;27;45705;-66
2022/06/29 11:13:04;;;;;;;;;2.75;2.75;;;;;-146.44;100.00;58906.56;5087610;27;45551;-61
2022/06/29 11:15:48;;;;;;;;;3.00;3.00;;;;;-146.44;100.00;58906.56;5092574;27;45580;-62
2022/06/29 11:18:16;;;;;;;;;2.00;2.00;;;;;-146.44;100.00;58906.56;5079090;27;46553;-61
2022/06/29 11:20:43;;;;;;;;;1.75;1.75;;;;;-146.44;100.00;58906.56;5077732;27;45543;-62
2022/06/29 11:23:10;;;;;;;;;2.00;2.00;;;;;-146.44;100.00;58906.56;5096245;27;45454;-62
2022/06/29 11:25:39;;;;;;;;;2.75;2.75;;;;;-146.44;100.00;58906.56;5095058;27;45608;-62